Terminal Aerodrome Forecast
Issued by NWS

Home | Current Version | Previous Version | Text Only | Print | Product List | Glossary On
Versions: 1 2 3 4 5 6 7 8 9 10 11 12 13
779
FTUS41 KBTV 231733
TAFRUT
TAF
KRUT 231733Z 2318/2418 VRB05KT P6SM SCT050
     FM232200 20006KT P6SM VCSH BKN050
     FM240000 21006KT P6SM BKN030
     FM240300 16005KT P6SM SCT070
     FM241100 13006KT P6SM VCSH OVC025=

USA.gov is the U.S. government's official web portal to all federal, state and local government web resources and services.